createdAt,value
2019-05-09T00:01:58.307Z,29.50
2019-05-09T00:04:33.482Z,29.20
2019-05-09T00:07:07.412Z,28.50
2019-05-09T00:09:41.112Z,31.00
2019-05-09T00:12:14.828Z,36.25
2019-05-09T00:14:48.519Z,34.25
2019-05-09T00:17:23.265Z,32.25
2019-05-09T00:19:57.153Z,35.40
2019-05-09T00:22:33.246Z,32.00
2019-05-09T00:25:07.103Z,33.40
2019-05-09T00:27:40.812Z,34.75
2019-05-09T00:30:14.515Z,35.25
2019-05-09T00:32:48.226Z,30.75
2019-05-09T00:35:23.369Z,34.75
2019-05-09T00:37:57.237Z,36.75
2019-05-09T00:40:30.940Z,32.00
2019-05-09T00:43:04.646Z,33.25
2019-05-09T00:45:38.344Z,37.75
2019-05-09T00:48:14.011Z,34.80
2019-05-09T00:50:47.470Z,34.75
2019-05-09T00:53:23.101Z,33.00
2019-05-09T00:55:56.587Z,33.25
2019-05-09T00:58:30.287Z,33.50
2019-05-09T01:01:04.514Z,33.75
2019-05-09T01:03:38.396Z,40.00
2019-05-09T01:06:13.457Z,37.25
2019-05-09T01:08:47.295Z,38.60
2019-05-09T01:11:21.139Z,36.50
2019-05-09T01:13:54.866Z,38.50
2019-05-09T01:16:28.551Z,36.75
2019-05-09T01:19:03.657Z,37.20
2019-05-09T01:21:37.544Z,39.25
2019-05-09T01:24:11.272Z,35.00
2019-05-09T01:26:46.616Z,41.00
2019-05-09T01:29:20.532Z,43.00
2019-05-09T01:31:54.223Z,40.25
2019-05-09T01:34:27.940Z,40.50
2019-05-09T01:37:03.494Z,38.75
2019-05-09T01:39:37.477Z,44.60
2019-05-09T01:42:11.175Z,41.25
2019-05-09T01:44:44.886Z,42.50
2019-05-09T01:47:18.599Z,46.00
2019-05-09T01:49:53.839Z,43.60
2019-05-09T01:52:27.762Z,47.75
2019-05-09T01:55:03.659Z,42.80
2019-05-09T01:57:36.927Z,46.00
2019-05-09T02:00:10.639Z,44.25
2019-05-09T02:02:44.346Z,40.00
2019-05-09T02:05:18.328Z,45.80
2019-05-09T02:07:54.107Z,44.50
2019-05-09T02:10:27.437Z,38.80
2019-05-09T02:13:03.058Z,41.00
2019-05-09T02:15:37.149Z,40.00
2019-05-09T02:18:10.872Z,41.75
2019-05-09T02:20:44.849Z,41.00
2019-05-09T02:23:18.555Z,41.50
2019-05-09T02:26:13.589Z,42.00
2019-05-09T02:28:47.106Z,39.25
2019-05-09T02:31:20.825Z,38.00
2019-05-09T02:33:54.544Z,41.80
2019-05-09T02:36:29.592Z,38.00
2019-05-09T02:39:08.919Z,41.40
2019-05-09T02:41:59.584Z,34.00
2019-05-09T02:44:19.533Z,39.50
2019-05-09T02:46:52.571Z,39.80
2019-05-09T02:49:28.718Z,41.00
2019-05-09T02:52:01.974Z,40.60
2019-05-09T02:54:39.097Z,42.00
2019-05-09T02:57:11.090Z,40.75
2019-05-09T02:59:44.790Z,40.50
2019-05-09T03:02:19.508Z,39.50
2019-05-09T03:04:53.500Z,38.50
2019-05-09T03:07:28.825Z,40.75
2019-05-09T03:10:03.755Z,40.00
2019-05-09T03:12:39.860Z,34.25
2019-05-09T03:15:13.422Z,37.25
2019-05-09T03:17:49.440Z,34.00
2019-05-09T03:20:22.525Z,36.50
2019-05-09T03:22:58.272Z,37.25
2019-05-09T03:25:31.988Z,38.75
2019-05-09T03:28:05.702Z,35.00
2019-05-09T03:30:39.942Z,31.25
2019-05-09T03:33:13.721Z,35.20
2019-05-09T03:35:48.194Z,32.75
2019-05-09T03:38:21.907Z,37.25
2019-05-09T03:40:57.899Z,36.25
2019-05-09T03:43:31.189Z,32.25
2019-05-09T03:46:04.898Z,35.20
2019-05-09T03:48:38.601Z,35.25
2019-05-09T03:51:13.125Z,38.00
2019-05-09T03:53:48.394Z,36.80
2019-05-09T03:56:22.302Z,38.00
2019-05-09T03:58:57.855Z,38.00
2019-05-09T04:01:31.417Z,36.00
2019-05-09T04:04:05.115Z,31.75
2019-05-09T04:06:39.285Z,36.60
2019-05-09T04:09:13.141Z,37.25
2019-05-09T04:11:48.497Z,39.50
2019-05-09T04:14:22.430Z,38.25
2019-05-09T04:16:57.541Z,36.25
2019-05-09T04:19:31.426Z,36.75
2019-05-09T04:22:05.153Z,36.25
2019-05-09T04:24:38.880Z,37.80
2019-05-09T04:27:13.272Z,35.40
2019-05-09T04:29:48.402Z,35.80
2019-05-09T04:32:22.254Z,32.25
2019-05-09T04:34:57.804Z,33.00
2019-05-09T04:37:31.378Z,34.00
2019-05-09T04:40:05.115Z,32.00
2019-05-09T04:42:43.020Z,34.50
2019-05-09T04:45:14.218Z,30.50
2019-05-09T04:47:47.962Z,33.60
2019-05-09T04:50:24.893Z,31.50
2019-05-09T04:52:58.022Z,34.60
2019-05-09T04:55:31.852Z,32.00
2019-05-09T04:58:05.562Z,38.00
2019-05-09T05:00:39.271Z,37.50
2019-05-09T05:03:13.524Z,37.40
2019-05-09T05:05:48.212Z,40.60
2019-05-09T05:08:22.034Z,36.50
2019-05-09T05:10:58.089Z,34.50
2019-05-09T05:13:31.150Z,29.00
2019-05-09T05:16:04.916Z,34.25
2019-05-09T05:18:38.639Z,36.75
2019-05-09T05:21:12.322Z,32.40
2019-05-09T05:23:47.258Z,31.75
2019-05-09T05:26:21.016Z,36.00
2019-05-09T05:28:54.715Z,37.50
2019-05-09T05:31:28.689Z,34.25
2019-05-09T05:34:02.527Z,30.25
2019-05-09T05:36:38.232Z,32.25
2019-05-09T05:39:11.663Z,33.50
2019-05-09T05:41:45.371Z,32.60
2019-05-09T05:44:19.092Z,31.00
2019-05-09T05:46:52.826Z,26.00
2019-05-09T05:49:27.930Z,29.00
2019-05-09T05:52:01.817Z,27.50
2019-05-09T05:54:37.679Z,25.75
2019-05-09T05:57:10.943Z,19.75
2019-05-09T05:59:44.675Z,24.75
2019-05-09T06:02:18.385Z,24.80
2019-05-09T06:04:52.084Z,23.00
2019-05-09T06:07:25.792Z,20.00
2019-05-09T06:09:59.496Z,20.60
2019-05-09T06:12:33.223Z,23.50
2019-05-09T06:15:07.557Z,20.25
2019-05-09T06:17:41.499Z,22.40
2019-05-09T06:20:17.595Z,21.00
2019-05-09T06:22:50.620Z,21.00
2019-05-09T06:25:24.383Z,20.25
2019-05-09T06:27:58.557Z,20.75
2019-05-09T06:30:32.730Z,19.50
2019-05-09T06:33:08.969Z,14.75
2019-05-09T06:35:41.980Z,16.00
2019-05-09T06:38:15.707Z,18.00
2019-05-09T06:40:49.416Z,16.75
2019-05-09T06:43:23.114Z,16.00
2019-05-09T06:45:57.555Z,17.80
2019-05-09T06:48:31.335Z,16.00
2019-05-09T06:51:07.202Z,15.75
2019-05-09T06:53:40.456Z,14.75
2019-05-09T06:56:14.153Z,14.00
2019-05-09T06:58:48.215Z,15.00
2019-05-09T07:01:22.055Z,15.50
2019-05-09T07:03:57.534Z,12.00
2019-05-09T07:06:31.366Z,15.75
2019-05-09T07:09:08.423Z,11.00
2019-05-09T07:11:42.284Z,10.75
2019-05-09T07:14:26.665Z,10.75
2019-05-09T07:16:51.411Z,12.40
2019-05-09T07:19:25.113Z,15.25
2019-05-09T07:21:58.853Z,12.75
2019-05-09T07:24:32.545Z,11.75
2019-05-09T07:27:07.330Z,13.00
2019-05-09T07:29:41.143Z,11.50
2019-05-09T07:32:14.849Z,11.75
2019-05-09T07:34:48.565Z,11.60
2019-05-09T07:37:22.274Z,12.50
2019-05-09T07:39:57.747Z,14.25
2019-05-09T07:42:31.380Z,12.75
2019-05-09T07:45:05.833Z,11.75
2019-05-09T07:47:39.545Z,8.20
2019-05-09T07:50:13.835Z,11.40
2019-05-09T07:52:47.897Z,11.40
2019-05-09T07:55:21.831Z,9.50
2019-05-09T07:57:58.160Z,11.20
2019-05-09T08:00:32.901Z,11.00
2019-05-09T08:03:09.250Z,9.80
2019-05-09T08:05:42.034Z,10.00
2019-05-09T08:08:18.334Z,9.20
2019-05-09T08:10:51.401Z,11.25
2019-05-09T08:13:25.092Z,8.00
2019-05-09T08:15:58.917Z,11.00
2019-05-09T08:18:32.588Z,6.00
2019-05-09T08:21:08.277Z,8.50
2019-05-09T08:23:41.773Z,10.00
2019-05-09T08:26:15.466Z,12.00
2019-05-09T08:28:49.207Z,10.00
2019-05-09T08:31:22.940Z,8.00
2019-05-09T08:33:59.047Z,8.50
2019-05-09T08:36:32.034Z,9.25
2019-05-09T08:39:08.118Z,7.80
2019-05-09T08:41:43.564Z,9.00
2019-05-09T08:44:18.702Z,8.20
2019-05-09T08:46:52.558Z,9.00
2019-05-09T08:49:28.556Z,11.75
2019-05-09T08:52:15.474Z,10.00
2019-05-09T08:54:38.040Z,10.00
2019-05-09T08:57:13.062Z,10.00
2019-05-09T08:59:50.224Z,11.80
2019-05-09T09:02:22.589Z,11.50
2019-05-09T09:04:58.224Z,10.50
2019-05-09T09:07:31.874Z,13.25
2019-05-09T09:10:08.212Z,9.25
2019-05-09T09:12:41.125Z,10.50
2019-05-09T09:15:14.820Z,7.80
2019-05-09T09:17:49.266Z,11.00
2019-05-09T09:20:22.984Z,10.40
2019-05-09T09:22:58.198Z,14.00
2019-05-09T09:25:32.330Z,13.25
2019-05-09T09:28:08.496Z,13.00
2019-05-09T09:30:41.435Z,12.50
2019-05-09T09:33:17.470Z,14.00
2019-05-09T09:35:50.567Z,14.00
2019-05-09T09:38:24.298Z,13.00
2019-05-09T09:40:58.202Z,14.60
2019-05-09T09:43:32.027Z,13.20
2019-05-09T09:46:11.829Z,10.00
2019-05-09T09:48:41.126Z,10.25
2019-05-09T09:51:14.829Z,14.00
2019-05-09T09:53:49.124Z,13.50
2019-05-09T09:56:22.969Z,13.60
2019-05-09T09:58:57.698Z,10.00
2019-05-09T10:01:31.468Z,9.67
2019-05-09T10:04:16.732Z,11.20
2019-05-09T10:06:40.671Z,11.00
2019-05-09T10:09:14.376Z,10.25
2019-05-09T10:11:48.473Z,10.00
2019-05-09T10:14:22.299Z,10.00
2019-05-09T10:16:58.073Z,11.00
2019-05-09T10:19:31.408Z,8.25
2019-05-09T10:22:05.111Z,6.40
2019-05-09T10:24:38.838Z,8.00
2019-05-09T10:27:13.383Z,9.60
2019-05-09T10:29:48.006Z,9.40
2019-05-09T10:32:21.860Z,8.00
2019-05-09T10:34:57.885Z,7.25
2019-05-09T10:37:30.982Z,10.50
2019-05-09T10:40:05.768Z,9.75
2019-05-09T10:42:39.510Z,9.00
2019-05-09T10:45:13.400Z,10.00
2019-05-09T10:47:48.317Z,9.00
2019-05-09T10:50:22.185Z,9.60
2019-05-09T10:52:58.196Z,12.00
2019-05-09T10:55:31.326Z,9.50
2019-05-09T10:58:07.865Z,9.00
2019-05-09T11:00:40.437Z,8.50
2019-05-09T11:03:14.130Z,9.25
2019-05-09T11:05:47.828Z,10.00
2019-05-09T11:08:21.557Z,9.25
2019-05-09T11:10:55.244Z,10.00
2019-05-09T11:13:28.948Z,7.00
2019-05-09T11:16:02.678Z,9.75
2019-05-09T11:18:36.416Z,7.60
2019-05-09T11:21:10.119Z,10.75
2019-05-09T11:23:43.873Z,11.25
2019-05-09T11:26:18.122Z,11.20
2019-05-09T11:28:52.094Z,10.00
2019-05-09T11:31:25.823Z,11.00
2019-05-09T11:33:59.510Z,8.00
2019-05-09T11:36:33.227Z,11.75
2019-05-09T11:39:10.647Z,8.75
2019-05-09T11:41:42.967Z,8.25
2019-05-09T11:44:18.452Z,8.00
2019-05-09T11:46:52.280Z,7.00
2019-05-09T11:49:25.979Z,8.25
2019-05-09T11:51:59.694Z,11.00
2019-05-09T11:54:33.393Z,10.60
2019-05-09T11:57:07.677Z,8.25
2019-05-09T11:59:41.523Z,11.00
2019-05-09T12:02:15.238Z,11.00
2019-05-09T12:04:49.012Z,9.50
2019-05-09T12:07:22.713Z,10.60
2019-05-09T12:09:58.684Z,9.00
2019-05-09T12:12:31.789Z,9.20
2019-05-09T12:15:08.778Z,11.50
2019-05-09T12:17:56.026Z,10.50
2019-05-09T12:20:18.145Z,10.17
2019-05-09T12:22:52.040Z,8.25
2019-05-09T12:25:28.084Z,8.80
2019-05-09T12:28:01.134Z,11.25
2019-05-09T12:30:34.837Z,9.60
2019-05-09T12:33:08.796Z,9.75
2019-05-09T12:35:42.522Z,10.75
2019-05-09T12:38:18.087Z,9.50
2019-05-09T12:40:51.638Z,7.25
2019-05-09T12:43:25.350Z,8.25
2019-05-09T12:45:59.042Z,8.25
2019-05-09T12:48:32.762Z,7.60
2019-05-09T12:51:08.246Z,7.75
2019-05-09T12:53:42.073Z,5.00
2019-05-09T12:56:18.495Z,7.80
2019-05-09T12:58:51.176Z,7.00
2019-05-09T13:01:24.876Z,10.75
2019-05-09T13:03:58.567Z,8.00
2019-05-09T13:06:32.260Z,7.50
2019-05-09T13:09:08.401Z,9.80
2019-05-09T13:11:41.841Z,9.60
2019-05-09T13:14:15.549Z,7.50
2019-05-09T13:16:53.340Z,10.00
2019-05-09T13:19:24.635Z,8.75
2019-05-09T13:21:58.798Z,10.50
2019-05-09T13:24:32.650Z,11.00
2019-05-09T13:27:07.885Z,8.00
2019-05-09T13:29:41.916Z,9.80
2019-05-09T13:32:17.888Z,8.50
2019-05-09T13:34:51.025Z,8.60
2019-05-09T13:37:29.190Z,10.00
2019-05-09T13:40:00.131Z,9.00
2019-05-09T13:42:33.861Z,7.60
2019-05-09T13:45:08.305Z,9.00
2019-05-09T13:47:42.106Z,7.00
2019-05-09T13:50:18.410Z,6.40
2019-05-09T13:52:51.383Z,8.00
2019-05-09T13:55:27.426Z,7.00
2019-05-09T13:58:00.471Z,7.00
2019-05-09T14:00:34.175Z,6.80
2019-05-09T14:03:08.285Z,7.25
2019-05-09T14:05:42.192Z,7.25
2019-05-09T14:08:18.202Z,7.75
2019-05-09T14:10:51.277Z,7.60
2019-05-09T14:13:24.965Z,8.00
2019-05-09T14:15:58.664Z,7.00
2019-05-09T14:18:32.361Z,8.00
2019-05-09T14:21:07.695Z,8.00
2019-05-09T14:23:50.974Z,8.50
2019-05-09T14:26:17.988Z,8.00
2019-05-09T14:28:51.970Z,7.25
2019-05-09T14:31:29.917Z,6.00
2019-05-09T14:34:01.048Z,5.00
2019-05-09T14:36:34.744Z,3.75
2019-05-09T14:39:09.274Z,3.00
2019-05-09T14:41:46.997Z,3.00
2019-05-09T14:44:18.900Z,3.00
2019-05-09T14:46:52.590Z,3.00
2019-05-09T14:49:39.670Z,2.00
2019-05-09T14:52:01.707Z,3.75
2019-05-09T14:54:35.390Z,2.40
2019-05-09T14:57:09.759Z,3.00
2019-05-09T14:59:43.591Z,2.00
2019-05-09T15:02:17.943Z,3.00
2019-05-09T15:04:51.775Z,3.00
2019-05-09T15:07:25.481Z,2.40
2019-05-09T15:09:59.877Z,3.75
2019-05-09T15:12:33.748Z,2.00
2019-05-09T15:15:08.111Z,4.20
2019-05-09T15:17:41.794Z,3.00
2019-05-09T15:20:17.879Z,2.80
2019-05-09T15:22:50.913Z,2.50
2019-05-09T15:25:24.609Z,3.00
2019-05-09T15:27:58.363Z,4.00
2019-05-09T15:30:32.073Z,3.00
2019-05-09T15:33:08.179Z,3.25
2019-05-09T15:35:41.163Z,4.00
2019-05-09T15:38:14.870Z,3.00
2019-05-09T15:40:48.584Z,3.00
2019-05-09T15:43:22.329Z,4.00
2019-05-09T15:45:58.210Z,4.00
2019-05-09T15:48:31.441Z,3.00
2019-05-09T15:51:07.413Z,2.75
2019-05-09T15:53:40.549Z,4.00
2019-05-09T15:56:14.241Z,3.00
2019-05-09T15:58:48.999Z,3.25
2019-05-09T16:01:22.907Z,2.40
2019-05-09T16:03:56.626Z,2.00
2019-05-09T16:06:33.063Z,2.25
2019-05-09T16:09:09.253Z,4.00
2019-05-09T16:11:41.146Z,2.00
2019-05-09T16:14:14.843Z,3.20
2019-05-09T16:16:48.529Z,2.00
2019-05-09T16:19:22.225Z,2.00
2019-05-09T16:21:55.929Z,2.00
2019-05-09T16:24:29.618Z,1.25
2019-05-09T16:27:03.380Z,2.00
2019-05-09T16:29:38.264Z,2.00
2019-05-09T16:32:13.177Z,2.80
2019-05-09T16:34:46.866Z,2.00
2019-05-09T16:37:20.545Z,1.00
2019-05-09T16:39:54.241Z,2.75
2019-05-09T16:42:28.311Z,1.00
2019-05-09T16:45:02.383Z,2.00
2019-05-09T16:47:36.065Z,2.20
2019-05-09T16:50:12.030Z,2.00
2019-05-09T16:52:45.180Z,2.25
2019-05-09T16:55:18.890Z,2.00
2019-05-09T16:57:52.572Z,2.00
2019-05-09T17:00:31.506Z,2.25
2019-05-09T17:03:05.227Z,2.00
2019-05-09T17:05:38.940Z,2.00
2019-05-09T17:08:13.442Z,2.00
2019-05-09T17:10:48.647Z,3.00
2019-05-09T17:13:22.696Z,3.00
2019-05-09T17:15:56.416Z,4.00
2019-05-09T17:18:30.102Z,4.00
2019-05-09T17:21:17.739Z,4.75
2019-05-09T17:23:39.220Z,3.80
2019-05-09T17:26:13.417Z,3.20
2019-05-09T17:28:48.498Z,3.00
2019-05-09T17:31:22.426Z,2.75
2019-05-09T17:33:57.918Z,3.80
2019-05-09T17:36:31.546Z,2.75
2019-05-09T17:39:07.776Z,3.00
2019-05-09T17:41:40.797Z,4.00
2019-05-09T17:44:14.506Z,2.75
2019-05-09T17:46:48.229Z,4.00
2019-05-09T17:49:21.996Z,4.00
2019-05-09T17:51:58.200Z,4.25
2019-05-09T17:54:31.098Z,0.00
2019-05-09T17:57:04.895Z,4.00
2019-05-09T17:59:39.209Z,3.25
2019-05-09T18:02:13.531Z,2.80
2019-05-09T18:04:47.974Z,5.00
2019-05-09T18:07:22.059Z,5.00
2019-05-09T18:09:57.928Z,4.50
2019-05-09T18:12:31.170Z,5.00
2019-05-09T18:15:07.664Z,4.00
2019-05-09T18:17:41.461Z,4.00
2019-05-09T18:20:17.442Z,3.50
2019-05-09T18:22:50.657Z,4.50
2019-05-09T18:25:24.452Z,4.40
2019-05-09T18:27:58.130Z,4.75
2019-05-09T18:30:31.870Z,3.50
2019-05-09T18:33:07.548Z,3.00
2019-05-09T18:35:41.052Z,2.25
2019-05-09T18:38:28.066Z,4.00
2019-05-09T18:41:07.047Z,3.25
2019-05-09T18:43:38.754Z,4.80
2019-05-09T18:46:12.456Z,12.60
2019-05-09T18:48:46.186Z,14.50
2019-05-09T18:51:19.919Z,13.75
2019-05-09T18:53:53.688Z,10.40
2019-05-09T18:56:27.408Z,11.00
2019-05-09T18:59:01.148Z,14.00
2019-05-09T19:01:34.890Z,14.25
2019-05-09T19:04:08.603Z,14.60
2019-05-09T19:06:42.347Z,14.75
2019-05-09T19:09:16.064Z,13.50
2019-05-09T19:11:49.857Z,13.00
2019-05-09T19:14:23.766Z,13.00
2019-05-09T19:16:57.497Z,13.60
2019-05-09T19:19:31.204Z,13.75
2019-05-09T19:22:21.080Z,14.00
2019-05-09T19:24:40.425Z,13.20
2019-05-09T19:27:14.180Z,14.25
2019-05-09T19:29:47.936Z,14.50
2019-05-09T19:32:21.648Z,13.40
2019-05-09T19:34:55.447Z,15.20
2019-05-09T19:37:29.158Z,17.00
2019-05-09T19:40:07.057Z,14.75
2019-05-09T19:42:40.777Z,16.75
2019-05-09T19:45:14.580Z,16.00
2019-05-09T19:47:48.307Z,14.25
2019-05-09T19:50:22.024Z,14.00
2019-05-09T19:52:55.754Z,14.00
2019-05-09T19:55:29.488Z,15.75
2019-05-09T19:58:04.169Z,13.25
2019-05-09T20:00:37.973Z,16.80
2019-05-09T20:03:11.771Z,13.00
2019-05-09T20:05:45.508Z,14.00
2019-05-09T20:08:19.293Z,14.50
2019-05-09T20:10:52.997Z,13.20
2019-05-09T20:13:26.740Z,14.00
2019-05-09T20:16:00.424Z,15.50
2019-05-09T20:18:34.180Z,14.75
2019-05-09T20:21:07.902Z,15.60
2019-05-09T20:23:41.652Z,13.75
2019-05-09T20:26:15.383Z,15.00
2019-05-09T20:28:49.082Z,13.00
2019-05-09T20:31:22.807Z,14.00
2019-05-09T20:33:56.533Z,10.75
2019-05-09T20:36:30.244Z,11.00
2019-05-09T20:39:05.304Z,14.80
2019-05-09T20:41:39.055Z,15.60
2019-05-09T20:44:13.218Z,19.40
2019-05-09T20:46:46.954Z,14.40
2019-05-09T20:49:20.658Z,14.00
2019-05-09T20:51:54.360Z,13.00
2019-05-09T20:54:28.097Z,15.20
2019-05-09T20:57:01.793Z,13.75
2019-05-09T20:59:35.525Z,15.00
2019-05-09T21:02:09.304Z,13.60
2019-05-09T21:04:43.038Z,15.00
2019-05-09T21:07:16.750Z,14.00
2019-05-09T21:09:50.460Z,13.25
2019-05-09T21:12:24.233Z,13.00
2019-05-09T21:14:57.947Z,14.50
2019-05-09T21:17:31.645Z,14.50
2019-05-09T21:20:05.718Z,18.00
2019-05-09T21:22:39.426Z,25.25
2019-05-09T21:25:13.472Z,19.60
2019-05-09T21:27:47.185Z,33.60
2019-05-09T21:30:20.910Z,35.25
2019-05-09T21:32:54.609Z,19.50
2019-05-09T21:35:28.311Z,16.00
2019-05-09T21:38:02.048Z,16.60
2019-05-09T21:40:35.823Z,14.25
2019-05-09T21:43:09.558Z,16.50
2019-05-09T21:45:43.266Z,17.00
2019-05-09T21:48:16.993Z,14.75
2019-05-09T21:50:50.689Z,18.25
2019-05-09T21:53:39.557Z,18.00
2019-05-09T21:55:59.825Z,17.00
2019-05-09T21:58:33.514Z,15.50
2019-05-09T22:01:07.210Z,21.75
2019-05-09T22:03:40.897Z,20.25
2019-05-09T22:06:14.593Z,19.00
2019-05-09T22:08:48.319Z,19.60
2019-05-09T22:11:22.033Z,22.00
2019-05-09T22:13:55.767Z,21.00
2019-05-09T22:16:29.462Z,20.25
2019-05-09T22:19:03.176Z,21.00
2019-05-09T22:21:36.893Z,18.25
2019-05-09T22:24:10.595Z,20.25
2019-05-09T22:26:44.325Z,17.60
2019-05-09T22:29:18.037Z,20.00
2019-05-09T22:31:51.750Z,17.50
2019-05-09T22:34:25.456Z,20.75
2019-05-09T22:36:59.180Z,19.00
2019-05-09T22:39:32.911Z,18.25
2019-05-09T22:42:06.613Z,18.50
2019-05-09T22:44:40.319Z,21.00
2019-05-09T22:47:14.039Z,17.50
2019-05-09T22:49:47.751Z,16.75
2019-05-09T22:52:21.489Z,18.00
2019-05-09T22:54:55.302Z,19.60
2019-05-09T22:57:29.007Z,17.75
2019-05-09T23:00:03.118Z,16.25
2019-05-09T23:02:36.885Z,18.25
2019-05-09T23:05:10.622Z,19.50
2019-05-09T23:07:44.331Z,14.00
2019-05-09T23:10:18.096Z,19.80
2019-05-09T23:12:51.861Z,23.00
2019-05-09T23:15:25.571Z,16.25
2019-05-09T23:17:59.286Z,21.50
2019-05-09T23:20:33.032Z,15.00
2019-05-09T23:23:06.812Z,14.00
2019-05-09T23:25:40.517Z,17.75
2019-05-09T23:28:14.246Z,16.00
2019-05-09T23:30:47.945Z,16.50
2019-05-09T23:33:21.673Z,18.20
2019-05-09T23:35:55.434Z,15.00
2019-05-09T23:38:29.171Z,17.00
2019-05-09T23:41:02.886Z,19.80
2019-05-09T23:43:36.604Z,19.00
2019-05-09T23:46:10.315Z,19.00
2019-05-09T23:48:44.042Z,18.75
2019-05-09T23:51:17.750Z,18.00
2019-05-09T23:53:51.484Z,17.00
2019-05-09T23:56:25.180Z,16.50
2019-05-09T23:58:58.903Z,18.40
